sensor_id;sensor_type;location;lat;lon;timestamp;temperature;humidity
62464;SHT31;48512;48.552;9.380;2022-11-18T00:01:28;8.84;87.57
62464;SHT31;48512;48.552;9.380;2022-11-18T00:03:54;8.89;87.75
62464;SHT31;48512;48.552;9.380;2022-11-18T00:06:23;8.97;86.82
62464;SHT31;48512;48.552;9.380;2022-11-18T00:08:49;9.02;86.30
62464;SHT31;48512;48.552;9.380;2022-11-18T00:11:16;8.98;86.44
62464;SHT31;48512;48.552;9.380;2022-11-18T00:14:04;9.02;86.01
62464;SHT31;48512;48.552;9.380;2022-11-18T00:16:45;9.04;84.26
62464;SHT31;48512;48.552;9.380;2022-11-18T00:19:11;9.23;84.18
62464;SHT31;48512;48.552;9.380;2022-11-18T00:21:36;9.36;83.87
62464;SHT31;48512;48.552;9.380;2022-11-18T00:24:01;9.23;84.29
62464;SHT31;48512;48.552;9.380;2022-11-18T00:26:27;9.19;85.10
62464;SHT31;48512;48.552;9.380;2022-11-18T00:28:54;9.12;84.28
62464;SHT31;48512;48.552;9.380;2022-11-18T00:31:20;9.07;84.74
62464;SHT31;48512;48.552;9.380;2022-11-18T00:33:45;9.09;85.21
62464;SHT31;48512;48.552;9.380;2022-11-18T00:36:10;9.04;85.77
62464;SHT31;48512;48.552;9.380;2022-11-18T00:38:36;9.01;86.38
62464;SHT31;48512;48.552;9.380;2022-11-18T00:41:03;8.99;86.09
62464;SHT31;48512;48.552;9.380;2022-11-18T00:43:31;9.05;86.16
62464;SHT31;48512;48.552;9.380;2022-11-18T00:45:57;9.05;86.30
62464;SHT31;48512;48.552;9.380;2022-11-18T00:48:22;9.14;86.01
62464;SHT31;48512;48.552;9.380;2022-11-18T00:50:48;9.16;86.02
62464;SHT31;48512;48.552;9.380;2022-11-18T00:53:13;9.22;86.24
62464;SHT31;48512;48.552;9.380;2022-11-18T00:55:41;9.28;86.41
62464;SHT31;48512;48.552;9.380;2022-11-18T00:58:06;9.26;86.74
62464;SHT31;48512;48.552;9.380;2022-11-18T01:00:31;9.33;86.92
62464;SHT31;48512;48.552;9.380;2022-11-18T01:02:57;9.35;87.12
62464;SHT31;48512;48.552;9.380;2022-11-18T01:05:22;9.33;87.09
62464;SHT31;48512;48.552;9.380;2022-11-18T01:07:47;9.35;87.09
62464;SHT31;48512;48.552;9.380;2022-11-18T01:10:13;9.39;87.43
62464;SHT31;48512;48.552;9.380;2022-11-18T01:12:38;9.26;86.98
62464;SHT31;48512;48.552;9.380;2022-11-18T01:15:22;9.14;87.31
62464;SHT31;48512;48.552;9.380;2022-11-18T01:17:47;9.15;87.58
62464;SHT31;48512;48.552;9.380;2022-11-18T01:20:13;9.09;86.63
62464;SHT31;48512;48.552;9.380;2022-11-18T01:22:39;8.97;87.13
62464;SHT31;48512;48.552;9.380;2022-11-18T01:25:04;8.95;87.10
62464;SHT31;48512;48.552;9.380;2022-11-18T01:27:30;8.89;86.72
62464;SHT31;48512;48.552;9.380;2022-11-18T01:29:55;8.87;87.63
62464;SHT31;48512;48.552;9.380;2022-11-18T01:32:20;8.87;88.25
62464;SHT31;48512;48.552;9.380;2022-11-18T01:34:45;8.84;88.84
62464;SHT31;48512;48.552;9.380;2022-11-18T01:37:11;8.71;89.75
62464;SHT31;48512;48.552;9.380;2022-11-18T01:39:36;8.67;89.46
62464;SHT31;48512;48.552;9.380;2022-11-18T01:42:01;8.70;89.57
62464;SHT31;48512;48.552;9.380;2022-11-18T01:47:11;8.80;88.89
62464;SHT31;48512;48.552;9.380;2022-11-18T01:49:37;8.78;89.35
62464;SHT31;48512;48.552;9.380;2022-11-18T01:52:02;8.65;89.78
62464;SHT31;48512;48.552;9.380;2022-11-18T01:54:29;8.63;90.05
62464;SHT31;48512;48.552;9.380;2022-11-18T01:56:56;8.77;89.89
62464;SHT31;48512;48.552;9.380;2022-11-18T01:59:24;8.82;89.29
62464;SHT31;48512;48.552;9.380;2022-11-18T02:01:50;8.82;89.58
62464;SHT31;48512;48.552;9.380;2022-11-18T02:04:15;8.92;89.01
62464;SHT31;48512;48.552;9.380;2022-11-18T02:06:44;8.84;89.00
62464;SHT31;48512;48.552;9.380;2022-11-18T02:09:09;8.81;89.17
62464;SHT31;48512;48.552;9.380;2022-11-18T02:11:35;8.74;89.38
62464;SHT31;48512;48.552;9.380;2022-11-18T02:14:18;8.70;89.35
62464;SHT31;48512;48.552;9.380;2022-11-18T02:21:59;8.84;90.04
62464;SHT31;48512;48.552;9.380;2022-11-18T02:29:29;8.89;89.74
62464;SHT31;48512;48.552;9.380;2022-11-18T02:31:57;8.87;90.12
62464;SHT31;48512;48.552;9.380;2022-11-18T02:34:30;8.91;90.04
62464;SHT31;48512;48.552;9.380;2022-11-18T02:40:01;8.87;90.05
62464;SHT31;48512;48.552;9.380;2022-11-18T02:42:29;8.93;89.97
62464;SHT31;48512;48.552;9.380;2022-11-18T02:44:59;8.91;89.87
62464;SHT31;48512;48.552;9.380;2022-11-18T02:47:26;8.89;89.92
62464;SHT31;48512;48.552;9.380;2022-11-18T02:49:54;8.78;90.49
62464;SHT31;48512;48.552;9.380;2022-11-18T02:52:21;8.80;90.53
62464;SHT31;48512;48.552;9.380;2022-11-18T02:54:47;8.74;90.82
62464;SHT31;48512;48.552;9.380;2022-11-18T02:57:13;8.68;91.22
62464;SHT31;48512;48.552;9.380;2022-11-18T02:59:39;8.68;91.33
62464;SHT31;48512;48.552;9.380;2022-11-18T03:02:07;8.63;91.51
62464;SHT31;48512;48.552;9.380;2022-11-18T03:04:33;8.67;91.71
62464;SHT31;48512;48.552;9.380;2022-11-18T03:07:05;8.67;91.43
62464;SHT31;48512;48.552;9.380;2022-11-18T03:09:35;8.64;91.45
62464;SHT31;48512;48.552;9.380;2022-11-18T03:12:21;8.64;91.35
62464;SHT31;48512;48.552;9.380;2022-11-18T03:20:20;8.56;91.74
62464;SHT31;48512;48.552;9.380;2022-11-18T03:22:49;8.63;91.75
62464;SHT31;48512;48.552;9.380;2022-11-18T03:25:30;8.68;91.48
62464;SHT31;48512;48.552;9.380;2022-11-18T03:30:25;8.64;91.68
62464;SHT31;48512;48.552;9.380;2022-11-18T03:33:13;8.67;91.47
62464;SHT31;48512;48.552;9.380;2022-11-18T03:35:38;8.70;91.40
62464;SHT31;48512;48.552;9.380;2022-11-18T03:38:05;8.74;91.10
62464;SHT31;48512;48.552;9.380;2022-11-18T03:40:32;8.71;91.72
62464;SHT31;48512;48.552;9.380;2022-11-18T03:43:07;8.72;91.46
62464;SHT31;48512;48.552;9.380;2022-11-18T03:45:49;8.81;91.36
62464;SHT31;48512;48.552;9.380;2022-11-18T03:48:19;8.88;91.04
62464;SHT31;48512;48.552;9.380;2022-11-18T03:50:47;8.84;91.10
62464;SHT31;48512;48.552;9.380;2022-11-18T03:53:14;8.89;90.81
62464;SHT31;48512;48.552;9.380;2022-11-18T03:55:41;8.89;90.80
62464;SHT31;48512;48.552;9.380;2022-11-18T04:00:36;8.87;90.41
62464;SHT31;48512;48.552;9.380;2022-11-18T04:03:02;9.01;89.63
62464;SHT31;48512;48.552;9.380;2022-11-18T04:05:27;8.92;89.51
62464;SHT31;48512;48.552;9.380;2022-11-18T04:07:56;8.87;89.96
62464;SHT31;48512;48.552;9.380;2022-11-18T04:13:07;8.95;89.63
62464;SHT31;48512;48.552;9.380;2022-11-18T04:15:37;8.92;89.74
62464;SHT31;48512;48.552;9.380;2022-11-18T04:18:03;8.92;89.87
62464;SHT31;48512;48.552;9.380;2022-11-18T04:20:29;8.91;89.46
62464;SHT31;48512;48.552;9.380;2022-11-18T04:22:55;8.92;89.45
62464;SHT31;48512;48.552;9.380;2022-11-18T04:25:21;8.97;89.28
62464;SHT31;48512;48.552;9.380;2022-11-18T04:27:48;8.93;88.64
62464;SHT31;48512;48.552;9.380;2022-11-18T04:30:13;8.91;88.73
62464;SHT31;48512;48.552;9.380;2022-11-18T04:32:39;8.92;88.82
62464;SHT31;48512;48.552;9.380;2022-11-18T04:35:04;8.88;88.62
62464;SHT31;48512;48.552;9.380;2022-11-18T04:37:29;8.74;89.14
62464;SHT31;48512;48.552;9.380;2022-11-18T04:39:55;8.81;88.96
62464;SHT31;48512;48.552;9.380;2022-11-18T04:42:20;8.75;88.54
62464;SHT31;48512;48.552;9.380;2022-11-18T04:44:45;8.75;88.36
62464;SHT31;48512;48.552;9.380;2022-11-18T04:47:10;8.74;89.11
62464;SHT31;48512;48.552;9.380;2022-11-18T04:49:36;8.59;89.22
62464;SHT31;48512;48.552;9.380;2022-11-18T04:52:01;8.57;89.01
62464;SHT31;48512;48.552;9.380;2022-11-18T04:54:29;8.67;88.51
62464;SHT31;48512;48.552;9.380;2022-11-18T04:56:55;8.72;88.84
62464;SHT31;48512;48.552;9.380;2022-11-18T04:59:21;8.64;89.25
62464;SHT31;48512;48.552;9.380;2022-11-18T05:01:47;8.65;89.54
62464;SHT31;48512;48.552;9.380;2022-11-18T05:04:13;8.65;89.60
62464;SHT31;48512;48.552;9.380;2022-11-18T05:06:39;8.75;88.18
62464;SHT31;48512;48.552;9.380;2022-11-18T05:09:04;8.71;88.35
62464;SHT31;48512;48.552;9.380;2022-11-18T05:11:31;8.74;88.39
62464;SHT31;48512;48.552;9.380;2022-11-18T05:14:15;8.65;85.65
62464;SHT31;48512;48.552;9.380;2022-11-18T05:16:40;8.65;85.33
62464;SHT31;48512;48.552;9.380;2022-11-18T05:19:06;8.46;82.66
62464;SHT31;48512;48.552;9.380;2022-11-18T05:21:31;8.42;83.70
62464;SHT31;48512;48.552;9.380;2022-11-18T05:23:59;8.34;82.83
62464;SHT31;48512;48.552;9.380;2022-11-18T05:26:25;8.26;84.68
62464;SHT31;48512;48.552;9.380;2022-11-18T05:28:50;8.25;84.45
62464;SHT31;48512;48.552;9.380;2022-11-18T05:31:15;8.17;86.04
62464;SHT31;48512;48.552;9.380;2022-11-18T05:33:41;8.16;86.38
62464;SHT31;48512;48.552;9.380;2022-11-18T05:36:08;8.40;87.10
62464;SHT31;48512;48.552;9.380;2022-11-18T05:38:34;8.49;86.91
62464;SHT31;48512;48.552;9.380;2022-11-18T05:41:00;8.42;87.51
62464;SHT31;48512;48.552;9.380;2022-11-18T05:43:28;8.32;87.93
62464;SHT31;48512;48.552;9.380;2022-11-18T05:45:54;8.25;88.16
62464;SHT31;48512;48.552;9.380;2022-11-18T05:48:19;8.29;87.67
62464;SHT31;48512;48.552;9.380;2022-11-18T05:50:45;8.17;85.97
62464;SHT31;48512;48.552;9.380;2022-11-18T05:53:11;8.19;86.24
62464;SHT31;48512;48.552;9.380;2022-11-18T05:55:43;8.07;86.10
62464;SHT31;48512;48.552;9.380;2022-11-18T05:58:09;8.15;86.27
62464;SHT31;48512;48.552;9.380;2022-11-18T06:00:35;8.03;87.27
62464;SHT31;48512;48.552;9.380;2022-11-18T06:03:03;8.63;92.10
62464;SHT31;48512;48.552;9.380;2022-11-18T06:05:33;9.81;91.82
62464;SHT31;48512;48.552;9.380;2022-11-18T06:07:58;9.47;86.58
62464;SHT31;48512;48.552;9.380;2022-11-18T06:10:25;9.25;85.36
62464;SHT31;48512;48.552;9.380;2022-11-18T06:12:55;9.01;85.41
62464;SHT31;48512;48.552;9.380;2022-11-18T06:15:22;9.91;91.24
62464;SHT31;48512;48.552;9.380;2022-11-18T06:17:51;10.08;87.67
62464;SHT31;48512;48.552;9.380;2022-11-18T06:20:18;9.76;85.07
62464;SHT31;48512;48.552;9.380;2022-11-18T06:22:44;9.35;84.52
62464;SHT31;48512;48.552;9.380;2022-11-18T06:25:09;8.97;85.38
62464;SHT31;48512;48.552;9.380;2022-11-18T06:27:35;8.67;86.14
62464;SHT31;48512;48.552;9.380;2022-11-18T06:30:00;8.49;87.05
62464;SHT31;48512;48.552;9.380;2022-11-18T06:32:25;8.19;88.37
62464;SHT31;48512;48.552;9.380;2022-11-18T06:34:51;8.12;88.67
62464;SHT31;48512;48.552;9.380;2022-11-18T06:37:17;8.25;88.60
62464;SHT31;48512;48.552;9.380;2022-11-18T06:39:44;8.06;88.29
62464;SHT31;48512;48.552;9.380;2022-11-18T06:42:10;8.15;88.05
62464;SHT31;48512;48.552;9.380;2022-11-18T06:44:35;8.19;87.52
62464;SHT31;48512;48.552;9.380;2022-11-18T06:47:02;8.06;87.49
62464;SHT31;48512;48.552;9.380;2022-11-18T06:49:27;7.96;88.13
62464;SHT31;48512;48.552;9.380;2022-11-18T06:51:53;8.21;87.53
62464;SHT31;48512;48.552;9.380;2022-11-18T06:54:18;8.17;86.50
62464;SHT31;48512;48.552;9.380;2022-11-18T06:56:44;8.06;87.30
62464;SHT31;48512;48.552;9.380;2022-11-18T06:59:09;8.05;88.40
62464;SHT31;48512;48.552;9.380;2022-11-18T07:01:35;8.02;88.74
62464;SHT31;48512;48.552;9.380;2022-11-18T07:04:01;7.95;88.44
62464;SHT31;48512;48.552;9.380;2022-11-18T07:06:27;8.06;87.76
62464;SHT31;48512;48.552;9.380;2022-11-18T07:08:53;7.95;88.00
62464;SHT31;48512;48.552;9.380;2022-11-18T07:11:20;7.91;87.93
62464;SHT31;48512;48.552;9.380;2022-11-18T07:13:46;7.92;87.80
62464;SHT31;48512;48.552;9.380;2022-11-18T07:16:12;8.39;84.27
62464;SHT31;48512;48.552;9.380;2022-11-18T07:18:38;8.15;86.57
62464;SHT31;48512;48.552;9.380;2022-11-18T07:21:07;8.01;87.40
62464;SHT31;48512;48.552;9.380;2022-11-18T07:23:33;8.01;88.20
62464;SHT31;48512;48.552;9.380;2022-11-18T07:25:58;7.85;87.67
62464;SHT31;48512;48.552;9.380;2022-11-18T07:28:24;7.94;87.23
62464;SHT31;48512;48.552;9.380;2022-11-18T07:30:50;8.05;85.86
62464;SHT31;48512;48.552;9.380;2022-11-18T07:33:18;8.07;86.20
62464;SHT31;48512;48.552;9.380;2022-11-18T07:35:43;7.98;85.64
62464;SHT31;48512;48.552;9.380;2022-11-18T07:38:09;7.99;85.76
62464;SHT31;48512;48.552;9.380;2022-11-18T07:40:34;7.99;85.76
62464;SHT31;48512;48.552;9.380;2022-11-18T07:42:59;7.86;86.51
62464;SHT31;48512;48.552;9.380;2022-11-18T07:45:24;8.05;85.82
62464;SHT31;48512;48.552;9.380;2022-11-18T07:47:50;7.92;86.60
62464;SHT31;48512;48.552;9.380;2022-11-18T07:50:15;7.96;86.40
62464;SHT31;48512;48.552;9.380;2022-11-18T07:52:41;7.99;86.25
62464;SHT31;48512;48.552;9.380;2022-11-18T07:55:06;8.13;85.71
62464;SHT31;48512;48.552;9.380;2022-11-18T07:57:32;8.06;86.45
62464;SHT31;48512;48.552;9.380;2022-11-18T07:59:57;7.98;87.53
62464;SHT31;48512;48.552;9.380;2022-11-18T08:02:22;8.28;86.20
62464;SHT31;48512;48.552;9.380;2022-11-18T08:04:48;8.32;87.56
62464;SHT31;48512;48.552;9.380;2022-11-18T08:07:13;8.37;85.80
62464;SHT31;48512;48.552;9.380;2022-11-18T08:09:38;8.29;85.89
62464;SHT31;48512;48.552;9.380;2022-11-18T08:12:04;8.10;86.56
62464;SHT31;48512;48.552;9.380;2022-11-18T08:14:29;8.02;87.37
62464;SHT31;48512;48.552;9.380;2022-11-18T08:16:54;8.07;87.37
62464;SHT31;48512;48.552;9.380;2022-11-18T08:19:20;8.36;85.17
62464;SHT31;48512;48.552;9.380;2022-11-18T08:21:45;8.17;86.65
62464;SHT31;48512;48.552;9.380;2022-11-18T08:24:10;8.15;87.05
62464;SHT31;48512;48.552;9.380;2022-11-18T08:26:36;8.15;86.77
62464;SHT31;48512;48.552;9.380;2022-11-18T08:29:01;8.07;86.90
62464;SHT31;48512;48.552;9.380;2022-11-18T08:31:28;8.30;86.50
62464;SHT31;48512;48.552;9.380;2022-11-18T08:36:20;8.06;88.22
62464;SHT31;48512;48.552;9.380;2022-11-18T08:38:46;8.16;88.05
62464;SHT31;48512;48.552;9.380;2022-11-18T08:41:12;8.23;87.83
62464;SHT31;48512;48.552;9.380;2022-11-18T08:43:38;8.30;86.62
62464;SHT31;48512;48.552;9.380;2022-11-18T08:46:03;8.29;86.65
62464;SHT31;48512;48.552;9.380;2022-11-18T08:48:28;8.26;87.45
62464;SHT31;48512;48.552;9.380;2022-11-18T08:50:54;8.22;88.26
62464;SHT31;48512;48.552;9.380;2022-11-18T08:53:19;8.32;86.40
62464;SHT31;48512;48.552;9.380;2022-11-18T08:55:44;8.22;87.17
62464;SHT31;48512;48.552;9.380;2022-11-18T08:58:10;8.22;88.81
62464;SHT31;48512;48.552;9.380;2022-11-18T09:00:35;8.39;87.88
62464;SHT31;48512;48.552;9.380;2022-11-18T09:03:00;8.50;86.89
62464;SHT31;48512;48.552;9.380;2022-11-18T09:05:26;8.63;86.40
62464;SHT31;48512;48.552;9.380;2022-11-18T09:07:51;8.39;87.01
62464;SHT31;48512;48.552;9.380;2022-11-18T09:10:16;8.44;87.44
62464;SHT31;48512;48.552;9.380;2022-11-18T09:12:41;8.37;87.13
62464;SHT31;48512;48.552;9.380;2022-11-18T09:15:07;8.42;87.74
62464;SHT31;48512;48.552;9.380;2022-11-18T09:17:33;8.34;87.77
62464;SHT31;48512;48.552;9.380;2022-11-18T09:19:58;8.26;88.18
62464;SHT31;48512;48.552;9.380;2022-11-18T09:22:26;8.30;87.83
62464;SHT31;48512;48.552;9.380;2022-11-18T09:24:51;8.39;88.05
62464;SHT31;48512;48.552;9.380;2022-11-18T09:27:16;8.36;88.31
62464;SHT31;48512;48.552;9.380;2022-11-18T09:29:42;8.54;86.93
62464;SHT31;48512;48.552;9.380;2022-11-18T09:32:09;8.53;87.13
62464;SHT31;48512;48.552;9.380;2022-11-18T09:34:35;8.64;86.54
62464;SHT31;48512;48.552;9.380;2022-11-18T09:37:02;8.59;87.46
62464;SHT31;48512;48.552;9.380;2022-11-18T09:39:27;8.60;87.86
62464;SHT31;48512;48.552;9.380;2022-11-18T09:42:15;8.61;87.81
62464;SHT31;48512;48.552;9.380;2022-11-18T09:47:28;8.67;88.17
62464;SHT31;48512;48.552;9.380;2022-11-18T09:50:01;8.74;88.19
62464;SHT31;48512;48.552;9.380;2022-11-18T09:54:53;8.92;88.04
62464;SHT31;48512;48.552;9.380;2022-11-18T09:57:25;8.87;88.46
62464;SHT31;48512;48.552;9.380;2022-11-18T09:59:52;9.14;87.14
62464;SHT31;48512;48.552;9.380;2022-11-18T10:04:43;8.95;87.18
62464;SHT31;48512;48.552;9.380;2022-11-18T10:07:15;9.26;86.63
62464;SHT31;48512;48.552;9.380;2022-11-18T10:09:44;9.22;86.23
62464;SHT31;48512;48.552;9.380;2022-11-18T10:14:58;9.26;87.24
62464;SHT31;48512;48.552;9.380;2022-11-18T10:22:32;9.23;88.25
62464;SHT31;48512;48.552;9.380;2022-11-18T10:24:58;9.53;86.82
62464;SHT31;48512;48.552;9.380;2022-11-18T10:27:48;9.54;86.59
62464;SHT31;48512;48.552;9.380;2022-11-18T10:30:13;9.49;87.22
62464;SHT31;48512;48.552;9.380;2022-11-18T10:35:37;9.40;87.24
62464;SHT31;48512;48.552;9.380;2022-11-18T10:38:20;9.39;87.98
62464;SHT31;48512;48.552;9.380;2022-11-18T10:40:55;9.35;87.43
62464;SHT31;48512;48.552;9.380;2022-11-18T10:46:18;9.32;86.50
62464;SHT31;48512;48.552;9.380;2022-11-18T10:48:47;9.36;87.46
62464;SHT31;48512;48.552;9.380;2022-11-18T10:51:22;9.57;86.48
62464;SHT31;48512;48.552;9.380;2022-11-18T10:53:48;9.64;85.58
62464;SHT31;48512;48.552;9.380;2022-11-18T10:56:13;9.80;85.70
62464;SHT31;48512;48.552;9.380;2022-11-18T10:58:45;9.70;85.76
62464;SHT31;48512;48.552;9.380;2022-11-18T11:03:39;9.54;87.36
62464;SHT31;48512;48.552;9.380;2022-11-18T11:08:50;9.61;86.38
62464;SHT31;48512;48.552;9.380;2022-11-18T11:11:26;9.80;84.95
62464;SHT31;48512;48.552;9.380;2022-11-18T11:13:53;9.64;86.14
62464;SHT31;48512;48.552;9.380;2022-11-18T11:16:20;9.60;86.38
62464;SHT31;48512;48.552;9.380;2022-11-18T11:18:47;9.67;86.13
62464;SHT31;48512;48.552;9.380;2022-11-18T11:21:18;9.78;85.61
62464;SHT31;48512;48.552;9.380;2022-11-18T11:23:47;9.46;86.56
62464;SHT31;48512;48.552;9.380;2022-11-18T11:28:52;9.51;86.32
62464;SHT31;48512;48.552;9.380;2022-11-18T11:31:23;9.40;86.97
62464;SHT31;48512;48.552;9.380;2022-11-18T11:33:56;9.51;86.38
62464;SHT31;48512;48.552;9.380;2022-11-18T11:41:32;9.44;87.43
62464;SHT31;48512;48.552;9.380;2022-11-18T11:52:10;9.16;88.35
62464;SHT31;48512;48.552;9.380;2022-11-18T11:54:41;9.19;88.43
62464;SHT31;48512;48.552;9.380;2022-11-18T11:57:13;9.26;88.30
62464;SHT31;48512;48.552;9.380;2022-11-18T12:05:21;9.30;86.35
62464;SHT31;48512;48.552;9.380;2022-11-18T12:07:51;9.46;87.07
62464;SHT31;48512;48.552;9.380;2022-11-18T12:18:54;9.51;87.60
62464;SHT31;48512;48.552;9.380;2022-11-18T12:26:55;9.69;88.40
62464;SHT31;48512;48.552;9.380;2022-11-18T12:29:21;9.70;88.77
62464;SHT31;48512;48.552;9.380;2022-11-18T12:31:49;9.76;88.77
62464;SHT31;48512;48.552;9.380;2022-11-18T12:36:50;9.84;88.30
62464;SHT31;48512;48.552;9.380;2022-11-18T12:44:34;12.78;85.35
62464;SHT31;48512;48.552;9.380;2022-11-18T12:47:00;13.34;82.20
62464;SHT31;48512;48.552;9.380;2022-11-18T12:51:57;13.92;77.31
62464;SHT31;48512;48.552;9.380;2022-11-18T12:56:51;13.55;70.31
62464;SHT31;48512;48.552;9.380;2022-11-18T12:59:26;13.51;76.30
62464;SHT31;48512;48.552;9.380;2022-11-18T13:02:05;13.54;74.74
62464;SHT31;48512;48.552;9.380;2022-11-18T13:04:31;13.57;73.53
62464;SHT31;48512;48.552;9.380;2022-11-18T13:06:56;13.33;74.70
62464;SHT31;48512;48.552;9.380;2022-11-18T13:09:24;13.41;74.56
62464;SHT31;48512;48.552;9.380;2022-11-18T13:11:54;13.51;74.16
62464;SHT31;48512;48.552;9.380;2022-11-18T13:20:29;11.06;77.43
62464;SHT31;48512;48.552;9.380;2022-11-18T13:22:57;10.85;78.06
62464;SHT31;48512;48.552;9.380;2022-11-18T13:25:42;10.63;80.70
62464;SHT31;48512;48.552;9.380;2022-11-18T13:30:35;10.81;79.51
62464;SHT31;48512;48.552;9.380;2022-11-18T13:33:01;10.56;80.64
62464;SHT31;48512;48.552;9.380;2022-11-18T13:35:27;10.60;80.28
62464;SHT31;48512;48.552;9.380;2022-11-18T13:37:57;10.55;80.83
62464;SHT31;48512;48.552;9.380;2022-11-18T13:40:30;10.48;81.27
62464;SHT31;48512;48.552;9.380;2022-11-18T13:42:56;10.52;80.18
62464;SHT31;48512;48.552;9.380;2022-11-18T13:45:22;10.25;81.50
62464;SHT31;48512;48.552;9.380;2022-11-18T13:47:50;10.31;82.05
62464;SHT31;48512;48.552;9.380;2022-11-18T13:55:51;10.35;81.00
62464;SHT31;48512;48.552;9.380;2022-11-18T14:01:00;10.18;81.37
62464;SHT31;48512;48.552;9.380;2022-11-18T14:05:56;10.38;80.84
62464;SHT31;48512;48.552;9.380;2022-11-18T14:08:24;10.28;80.47
62464;SHT31;48512;48.552;9.380;2022-11-18T14:10:50;10.04;81.09
62464;SHT31;48512;48.552;9.380;2022-11-18T14:13:21;10.02;81.25
62464;SHT31;48512;48.552;9.380;2022-11-18T14:15:47;10.24;80.87
62464;SHT31;48512;48.552;9.380;2022-11-18T14:18:17;10.24;79.81
62464;SHT31;48512;48.552;9.380;2022-11-18T14:20:48;10.19;78.90
62464;SHT31;48512;48.552;9.380;2022-11-18T14:23:14;10.12;80.25
62464;SHT31;48512;48.552;9.380;2022-11-18T14:25:41;10.09;80.72
62464;SHT31;48512;48.552;9.380;2022-11-18T14:30:40;9.88;80.57
62464;SHT31;48512;48.552;9.380;2022-11-18T14:35:34;9.98;78.71
62464;SHT31;48512;48.552;9.380;2022-11-18T14:37:59;9.87;79.74
62464;SHT31;48512;48.552;9.380;2022-11-18T14:40:24;9.95;79.75
62464;SHT31;48512;48.552;9.380;2022-11-18T14:42:50;9.81;79.08
62464;SHT31;48512;48.552;9.380;2022-11-18T14:45:15;9.69;80.77
62464;SHT31;48512;48.552;9.380;2022-11-18T14:47:40;9.76;80.55
62464;SHT31;48512;48.552;9.380;2022-11-18T14:50:12;9.73;81.37
62464;SHT31;48512;48.552;9.380;2022-11-18T14:52:38;9.76;81.47
62464;SHT31;48512;48.552;9.380;2022-11-18T14:55:03;9.76;82.51
62464;SHT31;48512;48.552;9.380;2022-11-18T14:57:28;9.73;83.35
62464;SHT31;48512;48.552;9.380;2022-11-18T14:59:54;9.66;84.21
62464;SHT31;48512;48.552;9.380;2022-11-18T15:02:19;9.70;84.69
62464;SHT31;48512;48.552;9.380;2022-11-18T15:04:44;9.70;83.55
62464;SHT31;48512;48.552;9.380;2022-11-18T15:07:11;9.67;83.12
62464;SHT31;48512;48.552;9.380;2022-11-18T15:09:37;9.76;80.10
62464;SHT31;48512;48.552;9.380;2022-11-18T15:12:03;10.05;79.83
62464;SHT31;48512;48.552;9.380;2022-11-18T15:14:31;11.10;86.50
62464;SHT31;48512;48.552;9.380;2022-11-18T15:16:58;11.04;75.91
62464;SHT31;48512;48.552;9.380;2022-11-18T15:19:24;10.73;75.42
62464;SHT31;48512;48.552;9.380;2022-11-18T15:21:49;10.59;75.18
62464;SHT31;48512;48.552;9.380;2022-11-18T15:24:14;10.36;75.68
62464;SHT31;48512;48.552;9.380;2022-11-18T15:26:43;9.97;77.09
62464;SHT31;48512;48.552;9.380;2022-11-18T15:31:39;9.69;81.28
62464;SHT31;48512;48.552;9.380;2022-11-18T15:34:05;9.73;80.98
62464;SHT31;48512;48.552;9.380;2022-11-18T15:36:30;9.61;80.16
62464;SHT31;48512;48.552;9.380;2022-11-18T15:38:55;9.58;80.32
62464;SHT31;48512;48.552;9.380;2022-11-18T15:41:27;9.56;79.72
62464;SHT31;48512;48.552;9.380;2022-11-18T15:43:54;9.50;81.06
62464;SHT31;48512;48.552;9.380;2022-11-18T15:46:22;9.38;82.12
62464;SHT31;48512;48.552;9.380;2022-11-18T15:48:52;9.51;79.90
62464;SHT31;48512;48.552;9.380;2022-11-18T15:51:17;9.33;78.70
62464;SHT31;48512;48.552;9.380;2022-11-18T15:53:43;9.40;79.55
62464;SHT31;48512;48.552;9.380;2022-11-18T15:56:13;9.35;78.82
62464;SHT31;48512;48.552;9.380;2022-11-18T15:58:38;9.32;79.32
62464;SHT31;48512;48.552;9.380;2022-11-18T16:01:04;9.30;78.72
62464;SHT31;48512;48.552;9.380;2022-11-18T16:03:29;9.32;78.63
62464;SHT31;48512;48.552;9.380;2022-11-18T16:05:54;9.87;79.29
62464;SHT31;48512;48.552;9.380;2022-11-18T16:08:20;9.63;78.28
62464;SHT31;48512;48.552;9.380;2022-11-18T16:10:45;9.51;79.35
62464;SHT31;48512;48.552;9.380;2022-11-18T16:13:29;9.33;79.87
62464;SHT31;48512;48.552;9.380;2022-11-18T16:15:55;9.26;80.19
62464;SHT31;48512;48.552;9.380;2022-11-18T16:18:20;9.25;82.00
62464;SHT31;48512;48.552;9.380;2022-11-18T16:20:46;9.19;80.20
62464;SHT31;48512;48.552;9.380;2022-11-18T16:23:11;9.44;79.38
62464;SHT31;48512;48.552;9.380;2022-11-18T16:25:41;9.32;79.30
62464;SHT31;48512;48.552;9.380;2022-11-18T16:28:07;9.01;80.50
62464;SHT31;48512;48.552;9.380;2022-11-18T16:30:32;9.14;80.29
62464;SHT31;48512;48.552;9.380;2022-11-18T16:33:16;9.12;80.07
62464;SHT31;48512;48.552;9.380;2022-11-18T16:35:45;8.99;80.07
62464;SHT31;48512;48.552;9.380;2022-11-18T16:38:11;9.11;80.29
62464;SHT31;48512;48.552;9.380;2022-11-18T16:40:38;8.99;80.65
62464;SHT31;48512;48.552;9.380;2022-11-18T16:43:06;8.89;80.94
62464;SHT31;48512;48.552;9.380;2022-11-18T16:45:31;8.95;81.15
62464;SHT31;48512;48.552;9.380;2022-11-18T16:47:56;8.95;81.48
62464;SHT31;48512;48.552;9.380;2022-11-18T16:50:22;9.18;79.88
62464;SHT31;48512;48.552;9.380;2022-11-18T16:52:49;8.89;81.30
62464;SHT31;48512;48.552;9.380;2022-11-18T16:55:14;8.78;81.38
62464;SHT31;48512;48.552;9.380;2022-11-18T16:57:42;8.78;81.15
62464;SHT31;48512;48.552;9.380;2022-11-18T17:00:08;8.70;82.01
62464;SHT31;48512;48.552;9.380;2022-11-18T17:02:33;8.81;81.41
62464;SHT31;48512;48.552;9.380;2022-11-18T17:04:59;8.74;81.59
62464;SHT31;48512;48.552;9.380;2022-11-18T17:07:26;8.67;82.05
62464;SHT31;48512;48.552;9.380;2022-11-18T17:09:51;8.63;82.14
62464;SHT31;48512;48.552;9.380;2022-11-18T17:12:17;8.82;81.04
62464;SHT31;48512;48.552;9.380;2022-11-18T17:14:42;8.70;81.60
62464;SHT31;48512;48.552;9.380;2022-11-18T17:17:07;8.82;81.05
62464;SHT31;48512;48.552;9.380;2022-11-18T17:19:34;8.92;80.56
62464;SHT31;48512;48.552;9.380;2022-11-18T17:22:00;8.95;80.45
62464;SHT31;48512;48.552;9.380;2022-11-18T17:24:25;8.63;81.45
62464;SHT31;48512;48.552;9.380;2022-11-18T17:26:51;8.49;81.75
62464;SHT31;48512;48.552;9.380;2022-11-18T17:29:17;8.54;81.34
62464;SHT31;48512;48.552;9.380;2022-11-18T17:31:42;8.49;82.10
62464;SHT31;48512;48.552;9.380;2022-11-18T17:34:11;9.51;91.03
62464;SHT31;48512;48.552;9.380;2022-11-18T17:36:37;9.51;80.17
62464;SHT31;48512;48.552;9.380;2022-11-18T17:39:03;9.58;82.42
62464;SHT31;48512;48.552;9.380;2022-11-18T17:41:28;9.40;78.81
62464;SHT31;48512;48.552;9.380;2022-11-18T17:44:13;8.95;79.81
62464;SHT31;48512;48.552;9.380;2022-11-18T17:46:39;8.81;81.12
62464;SHT31;48512;48.552;9.380;2022-11-18T17:49:09;8.74;80.85
62464;SHT31;48512;48.552;9.380;2022-11-18T17:51:36;8.60;81.60
62464;SHT31;48512;48.552;9.380;2022-11-18T17:54:01;8.54;81.88
62464;SHT31;48512;48.552;9.380;2022-11-18T17:56:26;8.85;80.55
62464;SHT31;48512;48.552;9.380;2022-11-18T17:58:52;8.74;80.29